createdAt,value
2023-01-06T00:01:37.480Z,3.65
2023-01-06T00:06:54.449Z,3.66
2023-01-06T00:12:24.479Z,3.64
2023-01-06T00:17:37.765Z,3.63
2023-01-06T00:22:54.112Z,3.57
2023-01-06T00:28:03.067Z,3.60
2023-01-06T00:33:13.640Z,3.65
2023-01-06T00:38:36.448Z,3.57
2023-01-06T00:43:47.807Z,3.56
2023-01-06T00:49:11.320Z,3.53
2023-01-06T00:54:16.669Z,3.52
2023-01-06T00:59:27.840Z,3.49
2023-01-06T01:04:37.793Z,3.51
2023-01-06T01:09:52.012Z,3.51
2023-01-06T01:15:07.033Z,3.49
2023-01-06T01:20:25.063Z,3.41
2023-01-06T01:25:37.922Z,3.40
2023-01-06T01:30:51.768Z,3.41
2023-01-06T01:35:59.163Z,3.44
2023-01-06T01:41:14.531Z,3.40
2023-01-06T01:46:28.485Z,3.43
2023-01-06T01:51:41.276Z,3.40
2023-01-06T01:57:05.593Z,3.45
2023-01-06T02:02:25.255Z,3.41
2023-01-06T02:07:42.400Z,3.42
2023-01-06T02:13:01.990Z,3.37
2023-01-06T02:18:39.812Z,3.38
2023-01-06T02:24:23.496Z,3.42
2023-01-06T02:30:36.612Z,3.44
2023-01-06T02:36:20.457Z,3.39
2023-01-06T02:41:34.874Z,3.44
2023-01-06T02:47:16.306Z,3.34
2023-01-06T02:52:35.670Z,3.35
2023-01-06T02:57:58.445Z,3.35
2023-01-06T03:03:21.357Z,3.30
2023-01-06T03:08:37.907Z,3.32
2023-01-06T03:13:59.183Z,3.29
2023-01-06T03:19:17.499Z,3.31
2023-01-06T03:24:24.761Z,3.28
2023-01-06T03:29:48.838Z,3.28
2023-01-06T03:35:18.585Z,3.29
2023-01-06T03:40:43.012Z,3.27
2023-01-06T03:46:21.675Z,3.27
2023-01-06T03:51:51.706Z,3.25
2023-01-06T03:57:14.352Z,3.21
2023-01-06T04:02:26.302Z,3.30
2023-01-06T04:07:34.896Z,3.28
2023-01-06T04:12:44.377Z,3.23
2023-01-06T04:17:58.821Z,3.20
2023-01-06T04:23:11.762Z,3.21
2023-01-06T04:28:34.497Z,3.24
2023-01-06T04:33:57.718Z,3.16
2023-01-06T04:39:05.701Z,3.06
2023-01-06T04:44:11.832Z,2.95
2023-01-06T04:49:22.382Z,2.92
2023-01-06T04:54:32.339Z,2.91
2023-01-06T04:59:41.175Z,2.96
2023-01-06T05:04:51.954Z,2.93
2023-01-06T05:10:08.014Z,2.80
2023-01-06T05:15:25.656Z,2.92
2023-01-06T05:20:36.217Z,2.92
2023-01-06T05:25:49.555Z,2.80
2023-01-06T05:31:06.000Z,2.87
2023-01-06T05:36:25.101Z,2.83
2023-01-06T05:41:38.012Z,2.83
2023-01-06T05:46:52.347Z,2.82
2023-01-06T05:52:08.816Z,2.80
2023-01-06T05:57:19.227Z,2.73
2023-01-06T06:02:31.785Z,2.76
2023-01-06T06:07:42.033Z,2.91
2023-01-06T06:12:52.797Z,2.93
2023-01-06T06:18:05.375Z,2.98
2023-01-06T06:23:15.903Z,3.01
2023-01-06T06:28:23.212Z,3.04
2023-01-06T06:33:41.292Z,3.08
2023-01-06T06:39:03.841Z,3.03
2023-01-06T06:44:11.950Z,2.99
2023-01-06T06:49:32.288Z,2.90
2023-01-06T06:54:45.512Z,2.93
2023-01-06T06:59:59.214Z,3.08
2023-01-06T07:05:09.084Z,3.14
2023-01-06T07:10:22.759Z,3.18
2023-01-06T07:15:33.111Z,3.13
2023-01-06T07:20:42.034Z,3.13
2023-01-06T07:25:46.921Z,3.19
2023-01-06T07:31:00.200Z,3.21
2023-01-06T07:36:21.425Z,3.15
2023-01-06T07:41:25.916Z,3.25
2023-01-06T07:46:48.172Z,3.30
2023-01-06T07:52:02.679Z,3.26
2023-01-06T07:57:12.909Z,3.22
2023-01-06T08:02:20.638Z,3.24
2023-01-06T08:07:26.575Z,3.34
2023-01-06T08:12:34.196Z,3.34
2023-01-06T08:17:41.843Z,3.32
2023-01-06T08:22:47.679Z,3.40
2023-01-06T08:27:58.928Z,3.39
2023-01-06T08:33:13.401Z,3.46
2023-01-06T08:38:27.669Z,3.42
2023-01-06T08:43:32.734Z,3.38
2023-01-06T08:48:37.250Z,3.43
2023-01-06T08:53:43.960Z,3.37
2023-01-06T08:58:54.136Z,3.40
2023-01-06T09:04:04.693Z,3.53
2023-01-06T09:09:12.973Z,3.61
2023-01-06T09:14:18.185Z,3.64
2023-01-06T09:19:22.693Z,3.73
2023-01-06T09:24:28.731Z,3.72
2023-01-06T09:29:33.798Z,3.75
2023-01-06T09:34:41.175Z,3.76
2023-01-06T09:39:47.085Z,3.75
2023-01-06T09:45:01.709Z,3.81
2023-01-06T09:50:15.852Z,3.81
2023-01-06T09:55:35.870Z,3.99
2023-01-06T10:00:46.455Z,3.97
2023-01-06T10:06:10.842Z,3.97
2023-01-06T10:11:24.814Z,4.30
2023-01-06T10:16:58.074Z,4.17
2023-01-06T10:22:10.310Z,4.37
2023-01-06T10:27:27.057Z,4.27
2023-01-06T10:32:38.083Z,4.41
2023-01-06T10:37:47.369Z,4.70
2023-01-06T10:43:04.063Z,4.82
2023-01-06T10:48:18.161Z,4.82
2023-01-06T10:53:37.864Z,4.85
2023-01-06T10:58:51.118Z,4.89
2023-01-06T11:04:12.424Z,4.97
2023-01-06T11:09:33.117Z,5.04
2023-01-06T11:14:40.657Z,5.02
2023-01-06T11:20:05.360Z,5.06
2023-01-06T11:25:33.140Z,5.24
2023-01-06T11:30:53.713Z,5.28
2023-01-06T11:36:32.790Z,5.42
2023-01-06T11:41:50.610Z,5.39
2023-01-06T11:47:07.147Z,5.37
2023-01-06T11:52:31.237Z,5.30
2023-01-06T11:57:49.453Z,5.33
2023-01-06T12:03:11.890Z,5.42
2023-01-06T12:08:27.791Z,5.42
2023-01-06T12:13:44.290Z,5.48
2023-01-06T12:18:54.852Z,5.41
2023-01-06T12:24:18.717Z,5.47
2023-01-06T12:29:34.577Z,5.32
2023-01-06T12:34:46.184Z,5.45
2023-01-06T12:40:02.265Z,5.46
2023-01-06T12:45:17.164Z,5.41
2023-01-06T12:50:41.739Z,5.23
2023-01-06T12:56:12.337Z,5.21
2023-01-06T13:01:38.592Z,5.18
2023-01-06T13:07:13.613Z,5.15
2023-01-06T13:12:42.456Z,5.07
2023-01-06T13:17:56.650Z,5.15
2023-01-06T13:23:27.936Z,5.01
2023-01-06T13:28:52.055Z,5.03
2023-01-06T13:35:02.230Z,4.91
2023-01-06T13:40:14.954Z,4.86
2023-01-06T13:45:26.603Z,4.90
2023-01-06T13:50:32.491Z,4.93
2023-01-06T13:55:40.703Z,4.93
2023-01-06T14:01:08.385Z,4.94
2023-01-06T14:06:46.942Z,4.84
2023-01-06T14:12:01.859Z,4.84
2023-01-06T14:17:31.781Z,4.91
2023-01-06T14:22:48.143Z,4.89
2023-01-06T14:28:29.012Z,4.86
2023-01-06T14:33:41.271Z,4.89
2023-01-06T14:39:00.188Z,4.84
2023-01-06T14:44:16.902Z,4.82
2023-01-06T14:49:28.662Z,4.87
2023-01-06T14:54:38.860Z,4.87
2023-01-06T15:00:18.539Z,4.88
2023-01-06T15:05:29.668Z,4.84
2023-01-06T15:10:51.787Z,4.81
2023-01-06T15:16:18.283Z,4.83
2023-01-06T15:21:26.467Z,4.84
2023-01-06T15:26:37.766Z,4.84
2023-01-06T15:31:58.237Z,4.83
2023-01-06T15:37:21.757Z,4.84
2023-01-06T15:42:27.828Z,4.80
2023-01-06T15:47:39.884Z,4.76
2023-01-06T15:52:48.308Z,4.80
2023-01-06T15:58:07.896Z,4.82
2023-01-06T16:03:24.320Z,4.87
2023-01-06T16:08:41.149Z,4.86
2023-01-06T16:13:59.798Z,4.85
2023-01-06T16:19:11.895Z,4.87
2023-01-06T16:24:30.313Z,4.88
2023-01-06T16:29:39.763Z,4.94
2023-01-06T16:34:58.623Z,5.00
2023-01-06T16:40:02.839Z,5.03
2023-01-06T16:45:16.345Z,5.08
2023-01-06T16:50:27.179Z,5.15
2023-01-06T16:55:41.547Z,5.20
2023-01-06T17:00:54.575Z,5.22
2023-01-06T17:06:00.452Z,5.29
2023-01-06T17:11:18.827Z,5.28
2023-01-06T17:16:32.105Z,5.31
2023-01-06T17:21:42.406Z,5.34
2023-01-06T17:27:03.823Z,5.42
2023-01-06T17:32:19.006Z,5.52
2023-01-06T17:37:31.018Z,5.57
2023-01-06T17:42:43.777Z,5.69
2023-01-06T17:47:57.850Z,5.72
2023-01-06T17:53:36.558Z,5.77
2023-01-06T17:58:53.431Z,5.82
2023-01-06T18:04:06.563Z,5.86
2023-01-06T18:09:18.921Z,5.85
2023-01-06T18:14:33.761Z,5.89
2023-01-06T18:19:41.049Z,5.93
2023-01-06T18:24:59.266Z,5.96
2023-01-06T18:30:22.247Z,5.98
2023-01-06T18:35:32.843Z,6.01
2023-01-06T18:40:39.836Z,5.98
2023-01-06T18:45:51.666Z,6.01
2023-01-06T18:51:19.047Z,6.01
2023-01-06T18:56:31.208Z,6.03
2023-01-06T19:01:53.590Z,6.07
2023-01-06T19:07:10.515Z,6.03
2023-01-06T19:12:33.883Z,6.09
2023-01-06T19:17:42.529Z,6.12
2023-01-06T19:22:47.402Z,6.20
2023-01-06T19:28:02.744Z,6.21
2023-01-06T19:33:47.442Z,6.30
2023-01-06T19:38:52.159Z,6.38
2023-01-06T19:44:04.112Z,6.46
2023-01-06T19:49:17.778Z,6.49
2023-01-06T19:54:39.868Z,6.54
2023-01-06T19:59:46.324Z,6.62
2023-01-06T20:04:50.986Z,6.70
2023-01-06T20:10:04.676Z,6.73
2023-01-06T20:15:25.461Z,6.77
2023-01-06T20:20:42.629Z,6.80
2023-01-06T20:25:53.960Z,6.83
2023-01-06T20:31:08.805Z,6.86
2023-01-06T20:36:17.338Z,6.92
2023-01-06T20:41:25.136Z,6.96
2023-01-06T20:46:36.874Z,6.98
2023-01-06T20:51:50.010Z,7.02
2023-01-06T20:57:00.697Z,7.06
2023-01-06T21:02:12.526Z,7.11
2023-01-06T21:07:23.390Z,7.17
2023-01-06T21:12:39.997Z,7.20
2023-01-06T21:17:48.710Z,7.24
2023-01-06T21:22:53.374Z,7.28
2023-01-06T21:28:03.925Z,7.30
2023-01-06T21:33:09.958Z,7.30
2023-01-06T21:38:17.329Z,7.29
2023-01-06T21:43:34.348Z,7.27
2023-01-06T21:48:43.477Z,7.31
2023-01-06T21:53:59.781Z,7.20
2023-01-06T21:59:16.319Z,7.21
2023-01-06T22:04:30.600Z,7.25
2023-01-06T22:09:40.625Z,7.23
2023-01-06T22:14:45.788Z,7.24
2023-01-06T22:20:00.782Z,7.29
2023-01-06T22:25:26.572Z,7.27
2023-01-06T22:30:33.977Z,7.29
2023-01-06T22:35:46.874Z,7.30
2023-01-06T22:41:02.364Z,7.34
2023-01-06T22:46:10.107Z,7.35
2023-01-06T22:51:35.282Z,7.37
2023-01-06T22:56:50.637Z,7.38
2023-01-06T23:02:11.707Z,7.35
2023-01-06T23:07:32.913Z,7.38
2023-01-06T23:12:45.022Z,7.33
2023-01-06T23:17:54.928Z,7.34
2023-01-06T23:23:06.418Z,7.28
2023-01-06T23:28:11.340Z,7.28
2023-01-06T23:33:15.815Z,7.26
2023-01-06T23:38:21.549Z,7.26
2023-01-06T23:43:31.613Z,7.24
2023-01-06T23:48:40.166Z,7.15
2023-01-06T23:53:47.208Z,7.12
2023-01-06T23:58:55.495Z,7.10
